sensor_id;sensor_type;location;lat;lon;timestamp;temperature;humidity
19256;DHT22;9762;52.490;13.410;2022-12-07T00:00:42;6.80;99.90
19256;DHT22;9762;52.490;13.410;2022-12-07T00:03:08;6.80;99.90
19256;DHT22;9762;52.490;13.410;2022-12-07T00:05:33;6.80;99.90
19256;DHT22;9762;52.490;13.410;2022-12-07T00:07:59;6.70;99.90
19256;DHT22;9762;52.490;13.410;2022-12-07T00:10:25;6.80;99.90
19256;DHT22;9762;52.490;13.410;2022-12-07T00:12:50;6.80;99.90
19256;DHT22;9762;52.490;13.410;2022-12-07T00:15:16;6.80;99.90
19256;DHT22;9762;52.490;13.410;2022-12-07T00:17:41;6.80;99.90
19256;DHT22;9762;52.490;13.410;2022-12-07T00:20:07;6.70;99.90
19256;DHT22;9762;52.490;13.410;2022-12-07T00:22:33;6.70;99.90
19256;DHT22;9762;52.490;13.410;2022-12-07T00:24:58;6.60;99.90
19256;DHT22;9762;52.490;13.410;2022-12-07T00:27:24;6.60;99.90
19256;DHT22;9762;52.490;13.410;2022-12-07T00:29:49;6.60;99.90
19256;DHT22;9762;52.490;13.410;2022-12-07T00:32:15;6.60;99.90
19256;DHT22;9762;52.490;13.410;2022-12-07T00:34:40;6.60;99.90
19256;DHT22;9762;52.490;13.410;2022-12-07T00:37:06;6.60;99.90
19256;DHT22;9762;52.490;13.410;2022-12-07T00:39:32;6.60;99.90
19256;DHT22;9762;52.490;13.410;2022-12-07T00:41:57;6.60;99.90
19256;DHT22;9762;52.490;13.410;2022-12-07T00:44:23;6.60;99.90
19256;DHT22;9762;52.490;13.410;2022-12-07T00:46:48;6.60;99.90
19256;DHT22;9762;52.490;13.410;2022-12-07T00:49:14;6.50;99.90
19256;DHT22;9762;52.490;13.410;2022-12-07T00:51:39;6.50;99.90
19256;DHT22;9762;52.490;13.410;2022-12-07T00:54:05;6.50;99.80
19256;DHT22;9762;52.490;13.410;2022-12-07T00:56:31;6.40;99.80
19256;DHT22;9762;52.490;13.410;2022-12-07T00:59:01;6.30;99.70
19256;DHT22;9762;52.490;13.410;2022-12-07T01:01:29;6.30;99.50
19256;DHT22;9762;52.490;13.410;2022-12-07T01:03:55;6.30;99.50
19256;DHT22;9762;52.490;13.410;2022-12-07T01:06:22;6.30;99.50
19256;DHT22;9762;52.490;13.410;2022-12-07T01:08:49;6.30;99.40
19256;DHT22;9762;52.490;13.410;2022-12-07T01:11:17;6.30;99.70
19256;DHT22;9762;52.490;13.410;2022-12-07T01:13:44;6.30;99.40
19256;DHT22;9762;52.490;13.410;2022-12-07T01:16:12;6.40;99.30
19256;DHT22;9762;52.490;13.410;2022-12-07T01:18:38;6.40;99.20
19256;DHT22;9762;52.490;13.410;2022-12-07T01:21:10;6.40;99.10
19256;DHT22;9762;52.490;13.410;2022-12-07T01:23:37;6.40;99.00
19256;DHT22;9762;52.490;13.410;2022-12-07T01:26:05;6.50;99.00
19256;DHT22;9762;52.490;13.410;2022-12-07T01:28:32;6.50;99.00
19256;DHT22;9762;52.490;13.410;2022-12-07T01:31:03;6.50;98.80
19256;DHT22;9762;52.490;13.410;2022-12-07T01:33:32;6.50;98.70
19256;DHT22;9762;52.490;13.410;2022-12-07T01:38:34;6.50;98.60
19256;DHT22;9762;52.490;13.410;2022-12-07T01:41:01;6.50;98.80
19256;DHT22;9762;52.490;13.410;2022-12-07T01:43:28;6.50;98.80
19256;DHT22;9762;52.490;13.410;2022-12-07T01:45:54;6.50;98.60
19256;DHT22;9762;52.490;13.410;2022-12-07T01:48:40;6.60;98.70
19256;DHT22;9762;52.490;13.410;2022-12-07T01:51:09;6.60;98.60
19256;DHT22;9762;52.490;13.410;2022-12-07T01:53:40;6.60;98.50
19256;DHT22;9762;52.490;13.410;2022-12-07T01:56:08;6.60;98.40
19256;DHT22;9762;52.490;13.410;2022-12-07T01:58:36;6.60;98.40
19256;DHT22;9762;52.490;13.410;2022-12-07T02:01:02;6.50;98.30
19256;DHT22;9762;52.490;13.410;2022-12-07T02:03:36;6.50;98.30
19256;DHT22;9762;52.490;13.410;2022-12-07T02:06:03;6.50;98.60
19256;DHT22;9762;52.490;13.410;2022-12-07T02:08:29;6.60;98.60
19256;DHT22;9762;52.490;13.410;2022-12-07T02:10:55;6.60;98.40
19256;DHT22;9762;52.490;13.410;2022-12-07T02:13:26;6.60;98.20
19256;DHT22;9762;52.490;13.410;2022-12-07T02:16:27;6.60;98.30
19256;DHT22;9762;52.490;13.410;2022-12-07T02:21:56;6.70;98.20
19256;DHT22;9762;52.490;13.410;2022-12-07T02:27:47;6.60;98.10
19256;DHT22;9762;52.490;13.410;2022-12-07T02:30:18;6.60;98.10
19256;DHT22;9762;52.490;13.410;2022-12-07T02:33:04;6.70;98.20
19256;DHT22;9762;52.490;13.410;2022-12-07T02:35:42;6.60;98.20
19256;DHT22;9762;52.490;13.410;2022-12-07T02:38:12;6.60;98.30
19256;DHT22;9762;52.490;13.410;2022-12-07T02:43:27;6.60;98.30
19256;DHT22;9762;52.490;13.410;2022-12-07T02:45:56;6.60;98.30
19256;DHT22;9762;52.490;13.410;2022-12-07T02:48:23;6.50;98.40
19256;DHT22;9762;52.490;13.410;2022-12-07T02:50:51;6.50;98.60
19256;DHT22;9762;52.490;13.410;2022-12-07T02:55:55;6.50;98.60
19256;DHT22;9762;52.490;13.410;2022-12-07T02:58:38;6.50;98.60
19256;DHT22;9762;52.490;13.410;2022-12-07T03:04:19;6.50;98.80
19256;DHT22;9762;52.490;13.410;2022-12-07T03:07:02;6.50;98.90
19256;DHT22;9762;52.490;13.410;2022-12-07T03:09:51;6.40;98.90
19256;DHT22;9762;52.490;13.410;2022-12-07T03:12:21;6.40;98.90
19256;DHT22;9762;52.490;13.410;2022-12-07T03:14:55;6.40;98.90
19256;DHT22;9762;52.490;13.410;2022-12-07T03:17:27;6.40;99.00
19256;DHT22;9762;52.490;13.410;2022-12-07T03:19:57;6.40;99.20
19256;DHT22;9762;52.490;13.410;2022-12-07T03:22:23;6.40;99.50
19256;DHT22;9762;52.490;13.410;2022-12-07T03:24:57;6.40;99.60
19256;DHT22;9762;52.490;13.410;2022-12-07T03:27:27;6.40;99.50
19256;DHT22;9762;52.490;13.410;2022-12-07T03:30:03;6.50;99.40
19256;DHT22;9762;52.490;13.410;2022-12-07T03:32:39;6.40;99.50
19256;DHT22;9762;52.490;13.410;2022-12-07T03:35:15;6.50;99.40
19256;DHT22;9762;52.490;13.410;2022-12-07T03:37:54;6.50;99.20
19256;DHT22;9762;52.490;13.410;2022-12-07T03:43:02;6.40;99.40
19256;DHT22;9762;52.490;13.410;2022-12-07T03:45:41;6.40;99.40
19256;DHT22;9762;52.490;13.410;2022-12-07T03:48:40;6.40;99.50
19256;DHT22;9762;52.490;13.410;2022-12-07T03:51:20;6.40;99.50
19256;DHT22;9762;52.490;13.410;2022-12-07T03:53:59;6.40;99.60
19256;DHT22;9762;52.490;13.410;2022-12-07T03:56:26;6.40;99.70
19256;DHT22;9762;52.490;13.410;2022-12-07T03:58:54;6.40;99.70
19256;DHT22;9762;52.490;13.410;2022-12-07T04:01:20;6.40;99.80
19256;DHT22;9762;52.490;13.410;2022-12-07T04:03:45;6.30;99.80
19256;DHT22;9762;52.490;13.410;2022-12-07T04:06:11;6.30;99.90
19256;DHT22;9762;52.490;13.410;2022-12-07T04:08:37;6.30;99.90
19256;DHT22;9762;52.490;13.410;2022-12-07T04:11:02;6.30;99.90
19256;DHT22;9762;52.490;13.410;2022-12-07T04:13:28;6.30;99.90
19256;DHT22;9762;52.490;13.410;2022-12-07T04:15:54;6.30;99.90
19256;DHT22;9762;52.490;13.410;2022-12-07T04:18:19;6.20;99.90
19256;DHT22;9762;52.490;13.410;2022-12-07T04:20:46;6.20;99.90
19256;DHT22;9762;52.490;13.410;2022-12-07T04:23:11;6.20;99.90
19256;DHT22;9762;52.490;13.410;2022-12-07T04:25:37;6.20;99.90
19256;DHT22;9762;52.490;13.410;2022-12-07T04:28:03;6.20;99.90
19256;DHT22;9762;52.490;13.410;2022-12-07T04:30:28;6.20;99.90
19256;DHT22;9762;52.490;13.410;2022-12-07T04:32:54;6.20;99.90
19256;DHT22;9762;52.490;13.410;2022-12-07T04:35:19;6.20;99.90
19256;DHT22;9762;52.490;13.410;2022-12-07T04:37:45;6.20;99.90
19256;DHT22;9762;52.490;13.410;2022-12-07T04:40:13;6.20;99.90
19256;DHT22;9762;52.490;13.410;2022-12-07T04:42:45;6.20;99.90
19256;DHT22;9762;52.490;13.410;2022-12-07T04:45:10;6.20;99.90
19256;DHT22;9762;52.490;13.410;2022-12-07T04:47:44;6.20;99.90
19256;DHT22;9762;52.490;13.410;2022-12-07T04:50:09;6.20;99.90
19256;DHT22;9762;52.490;13.410;2022-12-07T04:52:38;6.10;99.90
19256;DHT22;9762;52.490;13.410;2022-12-07T04:55:06;6.10;99.90
19256;DHT22;9762;52.490;13.410;2022-12-07T04:57:34;6.10;99.90
19256;DHT22;9762;52.490;13.410;2022-12-07T05:00:00;6.10;99.90
19256;DHT22;9762;52.490;13.410;2022-12-07T05:02:34;6.00;99.90
19256;DHT22;9762;52.490;13.410;2022-12-07T05:05:05;6.10;99.90
19256;DHT22;9762;52.490;13.410;2022-12-07T05:07:31;6.00;99.90
19256;DHT22;9762;52.490;13.410;2022-12-07T05:09:59;6.00;99.90
19256;DHT22;9762;52.490;13.410;2022-12-07T05:12:27;5.90;99.90
19256;DHT22;9762;52.490;13.410;2022-12-07T05:14:53;5.90;99.90
19256;DHT22;9762;52.490;13.410;2022-12-07T05:17:19;5.90;99.90
19256;DHT22;9762;52.490;13.410;2022-12-07T05:19:50;5.90;99.90
19256;DHT22;9762;52.490;13.410;2022-12-07T05:22:16;6.00;99.90
19256;DHT22;9762;52.490;13.410;2022-12-07T05:24:41;6.00;99.90
19256;DHT22;9762;52.490;13.410;2022-12-07T05:27:13;6.00;99.90
19256;DHT22;9762;52.490;13.410;2022-12-07T05:29:39;6.00;99.90
19256;DHT22;9762;52.490;13.410;2022-12-07T05:32:04;6.00;99.90
19256;DHT22;9762;52.490;13.410;2022-12-07T05:34:33;6.00;99.90
19256;DHT22;9762;52.490;13.410;2022-12-07T05:36:59;6.10;99.90
19256;DHT22;9762;52.490;13.410;2022-12-07T05:39:27;6.10;99.90
19256;DHT22;9762;52.490;13.410;2022-12-07T05:41:53;6.10;99.90
19256;DHT22;9762;52.490;13.410;2022-12-07T05:44:38;6.10;99.90
19256;DHT22;9762;52.490;13.410;2022-12-07T05:47:07;6.20;99.90
19256;DHT22;9762;52.490;13.410;2022-12-07T05:49:35;6.20;99.90
19256;DHT22;9762;52.490;13.410;2022-12-07T05:52:06;6.20;99.90
19256;DHT22;9762;52.490;13.410;2022-12-07T05:54:32;6.30;99.90
19256;DHT22;9762;52.490;13.410;2022-12-07T05:56:58;6.30;99.90
19256;DHT22;9762;52.490;13.410;2022-12-07T05:59:24;6.40;99.90
19256;DHT22;9762;52.490;13.410;2022-12-07T06:01:57;6.40;99.90
19256;DHT22;9762;52.490;13.410;2022-12-07T06:04:25;6.40;99.90
19256;DHT22;9762;52.490;13.410;2022-12-07T06:06:52;6.40;99.90
19256;DHT22;9762;52.490;13.410;2022-12-07T06:09:18;6.50;99.90
19256;DHT22;9762;52.490;13.410;2022-12-07T06:11:44;6.50;99.90
19256;DHT22;9762;52.490;13.410;2022-12-07T06:14:29;6.50;99.90
19256;DHT22;9762;52.490;13.410;2022-12-07T06:16:54;6.50;99.90
19256;DHT22;9762;52.490;13.410;2022-12-07T06:19:20;6.50;99.90
19256;DHT22;9762;52.490;13.410;2022-12-07T06:21:45;6.50;99.90
19256;DHT22;9762;52.490;13.410;2022-12-07T06:24:13;6.60;99.90
19256;DHT22;9762;52.490;13.410;2022-12-07T06:26:39;6.60;99.90
19256;DHT22;9762;52.490;13.410;2022-12-07T06:29:05;6.60;99.90
19256;DHT22;9762;52.490;13.410;2022-12-07T06:31:31;6.60;99.90
19256;DHT22;9762;52.490;13.410;2022-12-07T06:34:01;6.60;99.90
19256;DHT22;9762;52.490;13.410;2022-12-07T06:36:27;6.70;99.90
19256;DHT22;9762;52.490;13.410;2022-12-07T06:38:53;6.70;99.90
19256;DHT22;9762;52.490;13.410;2022-12-07T06:41:19;6.70;99.90
19256;DHT22;9762;52.490;13.410;2022-12-07T06:43:45;6.70;99.90
19256;DHT22;9762;52.490;13.410;2022-12-07T06:46:10;6.70;99.90
19256;DHT22;9762;52.490;13.410;2022-12-07T06:48:36;6.70;99.90
19256;DHT22;9762;52.490;13.410;2022-12-07T06:51:02;6.70;99.90
19256;DHT22;9762;52.490;13.410;2022-12-07T06:53:27;6.80;99.90
19256;DHT22;9762;52.490;13.410;2022-12-07T06:55:53;6.80;99.90
19256;DHT22;9762;52.490;13.410;2022-12-07T06:58:18;6.80;99.90
19256;DHT22;9762;52.490;13.410;2022-12-07T07:00:44;6.90;99.90
19256;DHT22;9762;52.490;13.410;2022-12-07T07:03:10;6.90;99.90
19256;DHT22;9762;52.490;13.410;2022-12-07T07:05:36;6.90;99.90
19256;DHT22;9762;52.490;13.410;2022-12-07T07:08:02;7.00;99.90
19256;DHT22;9762;52.490;13.410;2022-12-07T07:10:29;7.00;99.90
19256;DHT22;9762;52.490;13.410;2022-12-07T07:12:54;7.00;99.90
19256;DHT22;9762;52.490;13.410;2022-12-07T07:15:20;7.10;99.90
19256;DHT22;9762;52.490;13.410;2022-12-07T07:17:46;7.10;99.90
19256;DHT22;9762;52.490;13.410;2022-12-07T07:20:12;7.10;99.90
19256;DHT22;9762;52.490;13.410;2022-12-07T07:22:37;7.20;99.90
19256;DHT22;9762;52.490;13.410;2022-12-07T07:25:03;7.20;99.90
19256;DHT22;9762;52.490;13.410;2022-12-07T07:27:29;7.20;99.90
19256;DHT22;9762;52.490;13.410;2022-12-07T07:29:54;7.20;99.90
19256;DHT22;9762;52.490;13.410;2022-12-07T07:32:20;7.20;99.90
19256;DHT22;9762;52.490;13.410;2022-12-07T07:34:47;7.10;99.90
19256;DHT22;9762;52.490;13.410;2022-12-07T07:37:13;7.20;99.90
19256;DHT22;9762;52.490;13.410;2022-12-07T07:39:39;7.20;99.90
19256;DHT22;9762;52.490;13.410;2022-12-07T07:42:05;7.20;99.90
19256;DHT22;9762;52.490;13.410;2022-12-07T07:44:33;7.10;99.90
19256;DHT22;9762;52.490;13.410;2022-12-07T07:46:59;7.10;99.90
19256;DHT22;9762;52.490;13.410;2022-12-07T07:49:25;7.10;99.90
19256;DHT22;9762;52.490;13.410;2022-12-07T07:51:51;7.10;99.90
19256;DHT22;9762;52.490;13.410;2022-12-07T07:54:16;7.10;99.90
19256;DHT22;9762;52.490;13.410;2022-12-07T07:56:42;7.10;99.90
19256;DHT22;9762;52.490;13.410;2022-12-07T07:59:07;7.10;99.90
19256;DHT22;9762;52.490;13.410;2022-12-07T08:01:33;7.10;99.90
19256;DHT22;9762;52.490;13.410;2022-12-07T08:03:59;7.10;99.90
19256;DHT22;9762;52.490;13.410;2022-12-07T08:06:25;7.20;99.90
19256;DHT22;9762;52.490;13.410;2022-12-07T08:08:50;7.20;99.90
19256;DHT22;9762;52.490;13.410;2022-12-07T08:11:17;7.30;99.90
19256;DHT22;9762;52.490;13.410;2022-12-07T08:13:45;7.20;99.90
19256;DHT22;9762;52.490;13.410;2022-12-07T08:16:12;7.20;99.90
19256;DHT22;9762;52.490;13.410;2022-12-07T08:18:39;7.20;99.90
19256;DHT22;9762;52.490;13.410;2022-12-07T08:21:06;7.20;99.90
19256;DHT22;9762;52.490;13.410;2022-12-07T08:23:32;7.20;99.90
19256;DHT22;9762;52.490;13.410;2022-12-07T08:26:03;7.30;99.90
19256;DHT22;9762;52.490;13.410;2022-12-07T08:28:29;7.30;99.90
19256;DHT22;9762;52.490;13.410;2022-12-07T08:31:03;7.30;99.90
19256;DHT22;9762;52.490;13.410;2022-12-07T08:33:29;7.30;99.90
19256;DHT22;9762;52.490;13.410;2022-12-07T08:35:55;7.40;99.90
19256;DHT22;9762;52.490;13.410;2022-12-07T08:38:25;7.40;99.90
19256;DHT22;9762;52.490;13.410;2022-12-07T08:40:58;7.40;99.90
19256;DHT22;9762;52.490;13.410;2022-12-07T08:43:24;7.40;99.90
19256;DHT22;9762;52.490;13.410;2022-12-07T08:48:54;7.40;99.90
19256;DHT22;9762;52.490;13.410;2022-12-07T08:51:21;7.40;99.90
19256;DHT22;9762;52.490;13.410;2022-12-07T08:53:48;7.40;99.30
19256;DHT22;9762;52.490;13.410;2022-12-07T08:56:14;7.40;99.10
19256;DHT22;9762;52.490;13.410;2022-12-07T08:58:40;7.40;98.70
19256;DHT22;9762;52.490;13.410;2022-12-07T09:01:06;7.40;98.20
19256;DHT22;9762;52.490;13.410;2022-12-07T09:03:32;7.40;98.00
19256;DHT22;9762;52.490;13.410;2022-12-07T09:05:58;7.40;97.80
19256;DHT22;9762;52.490;13.410;2022-12-07T09:08:31;7.40;97.90
19256;DHT22;9762;52.490;13.410;2022-12-07T09:10:58;7.40;97.80
19256;DHT22;9762;52.490;13.410;2022-12-07T09:13:23;7.40;97.40
19256;DHT22;9762;52.490;13.410;2022-12-07T09:15:49;7.40;97.10
19256;DHT22;9762;52.490;13.410;2022-12-07T09:18:15;7.40;97.00
19256;DHT22;9762;52.490;13.410;2022-12-07T09:20:40;7.40;96.80
19256;DHT22;9762;52.490;13.410;2022-12-07T09:23:07;7.30;96.10
19256;DHT22;9762;52.490;13.410;2022-12-07T09:25:33;7.30;96.40
19256;DHT22;9762;52.490;13.410;2022-12-07T09:28:00;7.30;96.60
19256;DHT22;9762;52.490;13.410;2022-12-07T09:30:26;7.30;96.40
19256;DHT22;9762;52.490;13.410;2022-12-07T09:32:56;7.30;96.40
19256;DHT22;9762;52.490;13.410;2022-12-07T09:35:23;7.30;96.40
19256;DHT22;9762;52.490;13.410;2022-12-07T09:37:49;7.30;96.60
19256;DHT22;9762;52.490;13.410;2022-12-07T09:40:16;7.40;96.60
19256;DHT22;9762;52.490;13.410;2022-12-07T09:42:47;7.40;96.50
19256;DHT22;9762;52.490;13.410;2022-12-07T09:45:23;7.40;96.90
19256;DHT22;9762;52.490;13.410;2022-12-07T09:47:49;7.40;96.70
19256;DHT22;9762;52.490;13.410;2022-12-07T09:50:18;7.50;96.90
19256;DHT22;9762;52.490;13.410;2022-12-07T09:52:45;7.50;96.90
19256;DHT22;9762;52.490;13.410;2022-12-07T09:55:24;7.50;96.80
19256;DHT22;9762;52.490;13.410;2022-12-07T09:57:50;7.50;96.40
19256;DHT22;9762;52.490;13.410;2022-12-07T10:00:20;7.50;96.00
19256;DHT22;9762;52.490;13.410;2022-12-07T10:02:56;7.40;95.90
19256;DHT22;9762;52.490;13.410;2022-12-07T10:05:34;7.40;96.10
19256;DHT22;9762;52.490;13.410;2022-12-07T10:08:02;7.40;95.90
19256;DHT22;9762;52.490;13.410;2022-12-07T10:10:31;7.40;96.10
19256;DHT22;9762;52.490;13.410;2022-12-07T10:13:07;7.40;96.20
19256;DHT22;9762;52.490;13.410;2022-12-07T10:21:11;7.40;96.30
19256;DHT22;9762;52.490;13.410;2022-12-07T10:23:40;7.40;96.50
19256;DHT22;9762;52.490;13.410;2022-12-07T10:26:32;7.30;96.40
19256;DHT22;9762;52.490;13.410;2022-12-07T10:29:01;7.30;96.60
19256;DHT22;9762;52.490;13.410;2022-12-07T10:31:27;7.30;96.80
19256;DHT22;9762;52.490;13.410;2022-12-07T10:33:59;7.40;96.90
19256;DHT22;9762;52.490;13.410;2022-12-07T10:36:36;7.40;97.10
19256;DHT22;9762;52.490;13.410;2022-12-07T10:39:14;7.50;97.20
19256;DHT22;9762;52.490;13.410;2022-12-07T10:44:22;7.50;96.80
19256;DHT22;9762;52.490;13.410;2022-12-07T10:58:27;7.50;96.50
19256;DHT22;9762;52.490;13.410;2022-12-07T11:01:11;7.60;96.80
19256;DHT22;9762;52.490;13.410;2022-12-07T11:12:12;7.80;96.90
19256;DHT22;9762;52.490;13.410;2022-12-07T11:15:11;7.80;96.80
19256;DHT22;9762;52.490;13.410;2022-12-07T11:18:07;7.80;96.70
19256;DHT22;9762;52.490;13.410;2022-12-07T11:23:27;7.80;96.90
19256;DHT22;9762;52.490;13.410;2022-12-07T11:26:00;7.80;97.00
19256;DHT22;9762;52.490;13.410;2022-12-07T11:36:57;8.00;96.90
19256;DHT22;9762;52.490;13.410;2022-12-07T11:39:35;8.00;96.50
19256;DHT22;9762;52.490;13.410;2022-12-07T11:42:10;7.90;96.60
19256;DHT22;9762;52.490;13.410;2022-12-07T11:44:50;7.90;96.70
19256;DHT22;9762;52.490;13.410;2022-12-07T11:47:45;7.90;96.60
19256;DHT22;9762;52.490;13.410;2022-12-07T11:50:30;7.90;96.60
19256;DHT22;9762;52.490;13.410;2022-12-07T11:53:02;7.90;96.70
19256;DHT22;9762;52.490;13.410;2022-12-07T12:01:11;7.90;97.00
19256;DHT22;9762;52.490;13.410;2022-12-07T12:03:43;8.00;96.80
19256;DHT22;9762;52.490;13.410;2022-12-07T12:06:10;7.90;96.90
19256;DHT22;9762;52.490;13.410;2022-12-07T12:09:19;8.00;97.00
19256;DHT22;9762;52.490;13.410;2022-12-07T12:12:30;7.90;97.10
19256;DHT22;9762;52.490;13.410;2022-12-07T12:21:19;8.00;96.80
19256;DHT22;9762;52.490;13.410;2022-12-07T12:23:50;8.00;96.80
19256;DHT22;9762;52.490;13.410;2022-12-07T12:26:25;8.00;96.90
19256;DHT22;9762;52.490;13.410;2022-12-07T12:28:54;8.00;96.80
19256;DHT22;9762;52.490;13.410;2022-12-07T12:33:47;8.20;96.90
19256;DHT22;9762;52.490;13.410;2022-12-07T12:47:04;8.20;96.70
19256;DHT22;9762;52.490;13.410;2022-12-07T12:49:34;8.20;96.60
19256;DHT22;9762;52.490;13.410;2022-12-07T12:54:39;8.20;96.70
19256;DHT22;9762;52.490;13.410;2022-12-07T12:57:31;8.20;96.80
19256;DHT22;9762;52.490;13.410;2022-12-07T12:59:57;8.10;96.70
19256;DHT22;9762;52.490;13.410;2022-12-07T13:05:25;8.10;96.90
19256;DHT22;9762;52.490;13.410;2022-12-07T13:13:02;8.20;97.10
19256;DHT22;9762;52.490;13.410;2022-12-07T13:15:38;8.20;97.10
19256;DHT22;9762;52.490;13.410;2022-12-07T13:20:56;8.30;96.80
19256;DHT22;9762;52.490;13.410;2022-12-07T13:26:12;8.30;96.70
19256;DHT22;9762;52.490;13.410;2022-12-07T13:28:41;8.30;96.70
19256;DHT22;9762;52.490;13.410;2022-12-07T13:31:13;8.30;96.80
19256;DHT22;9762;52.490;13.410;2022-12-07T13:33:43;8.30;96.80
19256;DHT22;9762;52.490;13.410;2022-12-07T13:36:18;8.30;96.70
19256;DHT22;9762;52.490;13.410;2022-12-07T13:38:59;8.30;96.90
19256;DHT22;9762;52.490;13.410;2022-12-07T13:41:29;8.20;96.80
19256;DHT22;9762;52.490;13.410;2022-12-07T13:44:12;8.20;96.80
19256;DHT22;9762;52.490;13.410;2022-12-07T13:46:48;8.20;96.90
19256;DHT22;9762;52.490;13.410;2022-12-07T13:49:38;8.20;97.00
19256;DHT22;9762;52.490;13.410;2022-12-07T13:52:14;8.20;96.90
19256;DHT22;9762;52.490;13.410;2022-12-07T13:54:49;8.30;96.90
19256;DHT22;9762;52.490;13.410;2022-12-07T13:57:16;8.30;96.70
19256;DHT22;9762;52.490;13.410;2022-12-07T13:59:43;8.20;96.60
19256;DHT22;9762;52.490;13.410;2022-12-07T14:02:29;8.20;96.80
19256;DHT22;9762;52.490;13.410;2022-12-07T14:05:28;8.20;96.90
19256;DHT22;9762;52.490;13.410;2022-12-07T14:07:56;8.20;97.70
19256;DHT22;9762;52.490;13.410;2022-12-07T14:10:29;8.20;97.20
19256;DHT22;9762;52.490;13.410;2022-12-07T14:12:56;8.20;96.90
19256;DHT22;9762;52.490;13.410;2022-12-07T14:15:28;8.10;96.90
19256;DHT22;9762;52.490;13.410;2022-12-07T14:17:56;8.10;96.90
19256;DHT22;9762;52.490;13.410;2022-12-07T14:20:36;8.00;97.00
19256;DHT22;9762;52.490;13.410;2022-12-07T14:23:04;8.00;97.10
19256;DHT22;9762;52.490;13.410;2022-12-07T14:25:47;8.00;97.00
19256;DHT22;9762;52.490;13.410;2022-12-07T14:28:27;8.00;97.10
19256;DHT22;9762;52.490;13.410;2022-12-07T14:30:53;7.90;97.20
19256;DHT22;9762;52.490;13.410;2022-12-07T14:33:19;7.90;97.30
19256;DHT22;9762;52.490;13.410;2022-12-07T14:35:45;7.90;97.40
19256;DHT22;9762;52.490;13.410;2022-12-07T14:38:10;7.90;97.50
19256;DHT22;9762;52.490;13.410;2022-12-07T14:40:36;7.90;97.50
19256;DHT22;9762;52.490;13.410;2022-12-07T14:43:04;7.90;97.60
19256;DHT22;9762;52.490;13.410;2022-12-07T14:45:30;7.90;97.70
19256;DHT22;9762;52.490;13.410;2022-12-07T14:47:56;7.90;97.60
19256;DHT22;9762;52.490;13.410;2022-12-07T14:50:22;7.90;97.40
19256;DHT22;9762;52.490;13.410;2022-12-07T14:52:55;7.90;97.50
19256;DHT22;9762;52.490;13.410;2022-12-07T14:55:29;7.90;97.90
19256;DHT22;9762;52.490;13.410;2022-12-07T14:57:56;7.80;97.50
19256;DHT22;9762;52.490;13.410;2022-12-07T15:00:23;7.80;97.60
19256;DHT22;9762;52.490;13.410;2022-12-07T15:02:49;7.80;97.80
19256;DHT22;9762;52.490;13.410;2022-12-07T15:05:16;7.70;97.80
19256;DHT22;9762;52.490;13.410;2022-12-07T15:07:42;7.70;97.80
19256;DHT22;9762;52.490;13.410;2022-12-07T15:10:22;7.70;97.90
19256;DHT22;9762;52.490;13.410;2022-12-07T15:12:48;7.60;97.90
19256;DHT22;9762;52.490;13.410;2022-12-07T15:15:14;7.60;98.00
19256;DHT22;9762;52.490;13.410;2022-12-07T15:17:40;7.50;98.00
19256;DHT22;9762;52.490;13.410;2022-12-07T15:20:11;7.50;98.10
19256;DHT22;9762;52.490;13.410;2022-12-07T15:22:37;7.50;98.20
19256;DHT22;9762;52.490;13.410;2022-12-07T15:25:03;7.50;98.10
19256;DHT22;9762;52.490;13.410;2022-12-07T15:27:30;7.50;97.90
19256;DHT22;9762;52.490;13.410;2022-12-07T15:29:56;7.50;97.90
19256;DHT22;9762;52.490;13.410;2022-12-07T15:32:21;7.50;97.90
19256;DHT22;9762;52.490;13.410;2022-12-07T15:34:48;7.40;97.90
19256;DHT22;9762;52.490;13.410;2022-12-07T15:37:15;7.40;98.00
19256;DHT22;9762;52.490;13.410;2022-12-07T15:39:41;7.40;97.90
19256;DHT22;9762;52.490;13.410;2022-12-07T15:42:07;7.40;98.00
19256;DHT22;9762;52.490;13.410;2022-12-07T15:44:33;7.40;98.10
19256;DHT22;9762;52.490;13.410;2022-12-07T15:47:17;7.50;98.10
19256;DHT22;9762;52.490;13.410;2022-12-07T15:49:43;7.50;98.10
19256;DHT22;9762;52.490;13.410;2022-12-07T15:52:09;7.50;98.10
19256;DHT22;9762;52.490;13.410;2022-12-07T15:54:34;7.50;98.20
19256;DHT22;9762;52.490;13.410;2022-12-07T15:57:00;7.50;98.20
19256;DHT22;9762;52.490;13.410;2022-12-07T15:59:27;7.50;98.00
19256;DHT22;9762;52.490;13.410;2022-12-07T16:01:53;7.40;98.10
19256;DHT22;9762;52.490;13.410;2022-12-07T16:04:18;7.40;98.10
19256;DHT22;9762;52.490;13.410;2022-12-07T16:06:44;7.30;98.20
19256;DHT22;9762;52.490;13.410;2022-12-07T16:09:10;7.30;98.30
19256;DHT22;9762;52.490;13.410;2022-12-07T16:11:36;7.30;98.40
19256;DHT22;9762;52.490;13.410;2022-12-07T16:14:01;7.20;98.50
19256;DHT22;9762;52.490;13.410;2022-12-07T16:16:27;7.20;98.60
19256;DHT22;9762;52.490;13.410;2022-12-07T16:18:53;7.10;98.40
19256;DHT22;9762;52.490;13.410;2022-12-07T16:21:19;7.10;98.50
19256;DHT22;9762;52.490;13.410;2022-12-07T16:23:45;7.00;98.50
19256;DHT22;9762;52.490;13.410;2022-12-07T16:26:21;7.00;98.60
19256;DHT22;9762;52.490;13.410;2022-12-07T16:28:51;7.00;98.60
19256;DHT22;9762;52.490;13.410;2022-12-07T16:31:19;6.90;98.60
19256;DHT22;9762;52.490;13.410;2022-12-07T16:33:45;6.80;98.70
19256;DHT22;9762;52.490;13.410;2022-12-07T16:36:11;6.80;98.90
19256;DHT22;9762;52.490;13.410;2022-12-07T16:38:38;6.90;99.00
19256;DHT22;9762;52.490;13.410;2022-12-07T16:41:08;6.80;99.00
19256;DHT22;9762;52.490;13.410;2022-12-07T16:43:34;6.80;99.10
19256;DHT22;9762;52.490;13.410;2022-12-07T16:46:00;6.70;99.10
19256;DHT22;9762;52.490;13.410;2022-12-07T16:48:26;6.70;99.20
19256;DHT22;9762;52.490;13.410;2022-12-07T16:50:52;6.70;99.20
19256;DHT22;9762;52.490;13.410;2022-12-07T16:53:22;6.70;99.30
19256;DHT22;9762;52.490;13.410;2022-12-07T16:55:48;6.60;99.20
19256;DHT22;9762;52.490;13.410;2022-12-07T16:58:16;6.60;99.20
19256;DHT22;9762;52.490;13.410;2022-12-07T17:00:42;6.60;99.20
19256;DHT22;9762;52.490;13.410;2022-12-07T17:03:09;6.60;99.10
19256;DHT22;9762;52.490;13.410;2022-12-07T17:05:42;6.60;99.10
19256;DHT22;9762;52.490;13.410;2022-12-07T17:08:09;6.60;99.10
19256;DHT22;9762;52.490;13.410;2022-12-07T17:10:37;6.60;99.10
19256;DHT22;9762;52.490;13.410;2022-12-07T17:13:04;6.60;99.10
19256;DHT22;9762;52.490;13.410;2022-12-07T17:16:00;6.70;99.00
19256;DHT22;9762;52.490;13.410;2022-12-07T17:18:28;6.60;98.90
19256;DHT22;9762;52.490;13.410;2022-12-07T17:20:54;6.60;98.90
19256;DHT22;9762;52.490;13.410;2022-12-07T17:23:21;6.60;98.90
19256;DHT22;9762;52.490;13.410;2022-12-07T17:25:47;6.60;98.90
19256;DHT22;9762;52.490;13.410;2022-12-07T17:28:12;6.50;98.90
19256;DHT22;9762;52.490;13.410;2022-12-07T17:30:38;6.50;98.80
19256;DHT22;9762;52.490;13.410;2022-12-07T17:33:04;6.50;98.80
19256;DHT22;9762;52.490;13.410;2022-12-07T17:35:30;6.50;98.80
19256;DHT22;9762;52.490;13.410;2022-12-07T17:37:55;6.50;98.90
19256;DHT22;9762;52.490;13.410;2022-12-07T17:40:21;6.50;98.90
19256;DHT22;9762;52.490;13.410;2022-12-07T17:42:47;6.50;98.80